Řízení letového provozu České republiky
Letiste: LKPR Aktualizace: 24.08.2016 01:06:14  UTC
 METAR LKPR 24.08. 01:00 ...
METAR LKPR 240100Z 01003KT CAVOK 17/14 Q1027 NOSIG RMK REG QNH 1023=
 TAF LKPR 23.08. 23:00 ...
TAF LKPR 232300Z 2400/2506 VRB02KT CAVOK      BECMG 2409/2412 08007KT=